Benson, Nebraska
Current Conditions -  °F | °C
As of 12:52 AM on Friday 31 Oct 2014 (Local Time) from KOMA Reporting Station
Overcast Overcast  
Wind Chill: 29°   Ceiling: 2800
Heat Index: 40°   Visibility: 10mi
Dew Point: 29°   Wind: 25mph
Humidity: 65%   Direction: 350°N
Pressure: 30.41"   Gusts: 33mph
Location:  41.2947°N, 96.0008°W
Report Text: KOMA 310552Z 35022G29KT 10SM OVC028 04/M02 A3041 RMK AO2 PK WND 34033/0500 SLP301 T00441017 10117 20044 401720022 51036
Loading
Personal Weather Stations






























Interactive Weather Map
Tropical Storm Tracking
New forecast layout! Learn more

10-Day Weather Forecast

Advertisements
Track Severe Weather on mobile